sensor_id;sensor_type;location;lat;lon;timestamp;pressure;altitude;pressure_sealevel;temperature;humidity
8049;BME280;20935;42.660;23.342;2023-01-30T00:00:16;95014.78;;;0.45;100.00
8049;BME280;20935;42.660;23.342;2023-01-30T00:03:02;95014.72;;;0.54;100.00
8049;BME280;20935;42.660;23.342;2023-01-30T00:05:48;95004.75;;;0.39;100.00
8049;BME280;20935;42.660;23.342;2023-01-30T00:08:33;94994.91;;;0.48;100.00
8049;BME280;20935;42.660;23.342;2023-01-30T00:11:19;95000.94;;;0.48;100.00
8049;BME280;20935;42.660;23.342;2023-01-30T00:14:07;95000.41;;;0.43;100.00
8049;BME280;20935;42.660;23.342;2023-01-30T00:16:52;95013.91;;;0.74;0.00
8049;BME280;20935;42.660;23.342;2023-01-30T00:19:38;95005.25;;;0.32;100.00
8049;BME280;20935;42.660;23.342;2023-01-30T00:22:23;95001.84;;;0.53;100.00
8049;BME280;20935;42.660;23.342;2023-01-30T00:25:09;94999.03;;;0.37;100.00
8049;BME280;20935;42.660;23.342;2023-01-30T00:27:54;95007.69;;;0.58;100.00
8049;BME280;20935;42.660;23.342;2023-01-30T00:30:41;95003.03;;;0.43;100.00
8049;BME280;20935;42.660;23.342;2023-01-30T00:33:28;95001.59;;;0.45;100.00
8049;BME280;20935;42.660;23.342;2023-01-30T00:36:14;94996.75;;;0.35;100.00
8049;BME280;20935;42.660;23.342;2023-01-30T00:42:40;94998.06;;;0.21;100.00
8049;BME280;20935;42.660;23.342;2023-01-30T00:45:45;94989.16;;;0.34;100.00
8049;BME280;20935;42.660;23.342;2023-01-30T00:48:49;94986.13;;;0.23;100.00
8049;BME280;20935;42.660;23.342;2023-01-30T00:51:35;94980.94;;;0.15;100.00
8049;BME280;20935;42.660;23.342;2023-01-30T00:54:20;94969.75;;;0.38;100.00
8049;BME280;20935;42.660;23.342;2023-01-30T00:57:05;94982.44;;;0.36;100.00
8049;BME280;20935;42.660;23.342;2023-01-30T00:59:51;94982.44;;;0.36;100.00
8049;BME280;20935;42.660;23.342;2023-01-30T01:02:39;94973.88;;;0.27;100.00
8049;BME280;20935;42.660;23.342;2023-01-30T01:05:24;94978.25;;;0.23;100.00
8049;BME280;20935;42.660;23.342;2023-01-30T01:08:09;94989.13;;;-0.08;100.00
8049;BME280;20935;42.660;23.342;2023-01-30T01:10:55;94977.00;;;0.21;100.00
8049;BME280;20935;42.660;23.342;2023-01-30T01:13:40;94983.03;;;0.21;100.00
8049;BME280;20935;42.660;23.342;2023-01-30T01:16:27;94973.94;;;0.19;100.00
8049;BME280;20935;42.660;23.342;2023-01-30T01:19:15;94976.22;;;0.20;100.00
8049;BME280;20935;42.660;23.342;2023-01-30T01:22:00;94966.03;;;0.19;100.00
8049;BME280;20935;42.660;23.342;2023-01-30T01:24:46;94955.69;;;-0.07;100.00
8049;BME280;20935;42.660;23.342;2023-01-30T01:27:31;94957.19;;;0.23;100.00
8049;BME280;20935;42.660;23.342;2023-01-30T01:33:49;94956.91;;;0.16;100.00
8049;BME280;20935;42.660;23.342;2023-01-30T01:36:36;94959.34;;;0.21;100.00
8049;BME280;20935;42.660;23.342;2023-01-30T01:39:22;94963.78;;;0.29;100.00
8049;BME280;20935;42.660;23.342;2023-01-30T01:42:19;94961.31;;;0.24;100.00
8049;BME280;20935;42.660;23.342;2023-01-30T01:45:15;94978.34;;;0.47;100.00
8049;BME280;20935;42.660;23.342;2023-01-30T01:48:04;94962.94;;;0.17;100.00
8049;BME280;20935;42.660;23.342;2023-01-30T01:50:52;94966.88;;;0.11;100.00
8049;BME280;20935;42.660;23.342;2023-01-30T01:53:46;94971.31;;;0.39;100.00
8049;BME280;20935;42.660;23.342;2023-01-30T01:56:33;94962.66;;;-0.11;100.00
8049;BME280;20935;42.660;23.342;2023-01-30T01:59:23;94966.53;;;0.33;100.00
8049;BME280;20935;42.660;23.342;2023-01-30T02:02:21;94958.31;;;0.34;100.00
8049;BME280;20935;42.660;23.342;2023-01-30T02:05:07;94965.44;;;0.13;100.00
8049;BME280;20935;42.660;23.342;2023-01-30T02:07:58;94961.41;;;-0.05;100.00
8049;BME280;20935;42.660;23.342;2023-01-30T02:10:49;94965.25;;;0.18;100.00
8049;BME280;20935;42.660;23.342;2023-01-30T02:13:38;94958.50;;;0.29;100.00
8049;BME280;20935;42.660;23.342;2023-01-30T02:16:23;94965.56;;;0.37;100.00
8049;BME280;20935;42.660;23.342;2023-01-30T02:19:18;94962.50;;;0.15;100.00
8049;BME280;20935;42.660;23.342;2023-01-30T02:22:20;94965.56;;;0.37;100.00
8049;BME280;20935;42.660;23.342;2023-01-30T02:29:17;94972.63;;;0.25;100.00
8049;BME280;20935;42.660;23.342;2023-01-30T02:32:11;94968.72;;;0.10;100.00
8049;BME280;20935;42.660;23.342;2023-01-30T02:35:04;94959.16;;;0.06;100.00
8049;BME280;20935;42.660;23.342;2023-01-30T02:37:59;94955.97;;;0.00;100.00
8049;BME280;20935;42.660;23.342;2023-01-30T02:40:52;94949.84;;;0.08;100.00
8049;BME280;20935;42.660;23.342;2023-01-30T02:43:45;94962.44;;;0.23;100.00
8049;BME280;20935;42.660;23.342;2023-01-30T02:46:42;94949.47;;;0.18;100.00
8049;BME280;20935;42.660;23.342;2023-01-30T02:49:34;94952.28;;;0.13;100.00
8049;BME280;20935;42.660;23.342;2023-01-30T02:52:22;94948.69;;;0.38;100.00
8049;BME280;20935;42.660;23.342;2023-01-30T02:55:08;94946.00;;;0.06;100.00
8049;BME280;20935;42.660;23.342;2023-01-30T02:58:02;94945.09;;;0.22;100.00
8049;BME280;20935;42.660;23.342;2023-01-30T03:04:32;94945.88;;;0.23;100.00
8049;BME280;20935;42.660;23.342;2023-01-30T03:07:30;94958.44;;;0.38;100.00
8049;BME280;20935;42.660;23.342;2023-01-30T03:10:25;94952.03;;;0.47;100.00
8049;BME280;20935;42.660;23.342;2023-01-30T03:13:18;94943.59;;;0.33;100.00
8049;BME280;20935;42.660;23.342;2023-01-30T03:16:07;94933.34;;;0.53;100.00
8049;BME280;20935;42.660;23.342;2023-01-30T03:18:54;94938.94;;;0.18;100.00
8049;BME280;20935;42.660;23.342;2023-01-30T03:21:42;94932.06;;;0.05;100.00
8049;BME280;20935;42.660;23.342;2023-01-30T03:24:28;94926.78;;;0.05;100.00
8049;BME280;20935;42.660;23.342;2023-01-30T03:27:13;94926.28;;;0.12;100.00
8049;BME280;20935;42.660;23.342;2023-01-30T03:29:59;94926.13;;;0.29;100.00
8049;BME280;20935;42.660;23.342;2023-01-30T03:32:44;94914.66;;;0.13;100.00
8049;BME280;20935;42.660;23.342;2023-01-30T03:35:29;94914.69;;;-0.08;100.00
8049;BME280;20935;42.660;23.342;2023-01-30T03:38:16;94914.69;;;-0.08;100.00
8049;BME280;20935;42.660;23.342;2023-01-30T03:41:03;94909.78;;;-0.18;100.00
8049;BME280;20935;42.660;23.342;2023-01-30T03:43:49;94907.28;;;0.06;100.00
8049;BME280;20935;42.660;23.342;2023-01-30T03:46:34;94910.69;;;0.07;100.00
8049;BME280;20935;42.660;23.342;2023-01-30T03:49:36;94906.75;;;0.13;100.00
8049;BME280;20935;42.660;23.342;2023-01-30T03:52:21;94908.06;;;-0.14;100.00
8049;BME280;20935;42.660;23.342;2023-01-30T03:55:09;94910.69;;;0.07;100.00
8049;BME280;20935;42.660;23.342;2023-01-30T03:57:55;94905.00;;;-0.16;100.00
8049;BME280;20935;42.660;23.342;2023-01-30T04:00:41;94903.81;;;-0.07;100.00
8049;BME280;20935;42.660;23.342;2023-01-30T04:04:03;94913.97;;;0.04;100.00
8049;BME280;20935;42.660;23.342;2023-01-30T04:06:49;94889.38;;;-0.21;100.00
8049;BME280;20935;42.660;23.342;2023-01-30T04:09:34;94904.28;;;-0.25;100.00
8049;BME280;20935;42.660;23.342;2023-01-30T04:12:36;94896.03;;;-0.03;100.00
8049;BME280;20935;42.660;23.342;2023-01-30T04:15:21;94896.03;;;-0.03;100.00
8049;BME280;20935;42.660;23.342;2023-01-30T04:18:07;94902.44;;;0.08;100.00
8049;BME280;20935;42.660;23.342;2023-01-30T04:20:52;94906.56;;;-0.03;100.00
8049;BME280;20935;42.660;23.342;2023-01-30T04:23:38;94895.47;;;-0.29;100.00
8049;BME280;20935;42.660;23.342;2023-01-30T04:26:24;94896.56;;;-0.30;100.00
8049;BME280;20935;42.660;23.342;2023-01-30T04:29:11;94896.56;;;-0.30;100.00
8049;BME280;20935;42.660;23.342;2023-01-30T04:31:56;94902.91;;;-0.11;100.00
8049;BME280;20935;42.660;23.342;2023-01-30T04:34:41;94908.91;;;-0.02;100.00
8049;BME280;20935;42.660;23.342;2023-01-30T04:37:28;94903.31;;;0.00;100.00
8049;BME280;20935;42.660;23.342;2023-01-30T04:43:39;94902.44;;;0.08;100.00
8049;BME280;20935;42.660;23.342;2023-01-30T04:46:26;94900.34;;;-0.19;100.00
8049;BME280;20935;42.660;23.342;2023-01-30T04:49:11;94892.66;;;-0.24;100.00
8049;BME280;20935;42.660;23.342;2023-01-30T04:51:57;94886.75;;;-0.21;100.00
8049;BME280;20935;42.660;23.342;2023-01-30T04:54:42;94885.16;;;-0.14;100.00
8049;BME280;20935;42.660;23.342;2023-01-30T04:57:28;94884.50;;;-0.31;100.00
8049;BME280;20935;42.660;23.342;2023-01-30T05:00:13;94882.81;;;-0.15;100.00
8049;BME280;20935;42.660;23.342;2023-01-30T05:03:00;94871.16;;;-0.26;100.00
8049;BME280;20935;42.660;23.342;2023-01-30T05:05:46;94867.94;;;-0.32;100.00
8049;BME280;20935;42.660;23.342;2023-01-30T05:08:38;94879.41;;;-0.16;100.00
8049;BME280;20935;42.660;23.342;2023-01-30T05:11:25;94873.00;;;-0.06;100.00
8049;BME280;20935;42.660;23.342;2023-01-30T05:14:11;94874.03;;;0.02;100.00
8049;BME280;20935;42.660;23.342;2023-01-30T05:16:56;94870.25;;;-0.30;100.00
8049;BME280;20935;42.660;23.342;2023-01-30T05:19:43;94878.88;;;-0.21;100.00
8049;BME280;20935;42.660;23.342;2023-01-30T05:22:31;94877.00;;;-0.41;100.00
8049;BME280;20935;42.660;23.342;2023-01-30T05:25:17;94885.13;;;-0.55;100.00
8049;BME280;20935;42.660;23.342;2023-01-30T05:28:03;94889.81;;;-0.19;100.00
8049;BME280;20935;42.660;23.342;2023-01-30T05:30:48;94886.56;;;-0.37;100.00
8049;BME280;20935;42.660;23.342;2023-01-30T05:33:34;94894.97;;;-0.23;100.00
8049;BME280;20935;42.660;23.342;2023-01-30T05:36:22;94891.31;;;-0.10;100.00
8049;BME280;20935;42.660;23.342;2023-01-30T05:39:07;94878.53;;;-0.40;100.00
8049;BME280;20935;42.660;23.342;2023-01-30T05:41:53;94888.03;;;-0.07;100.00
8049;BME280;20935;42.660;23.342;2023-01-30T05:44:38;94900.09;;;-0.26;100.00
8049;BME280;20935;42.660;23.342;2023-01-30T05:47:24;94884.88;;;-0.41;100.00
8049;BME280;20935;42.660;23.342;2023-01-30T05:50:10;94889.63;;;-0.35;100.00
8049;BME280;20935;42.660;23.342;2023-01-30T05:52:57;94890.22;;;-0.29;100.00
8049;BME280;20935;42.660;23.342;2023-01-30T05:55:43;94897.09;;;-0.37;100.00
8049;BME280;20935;42.660;23.342;2023-01-30T05:58:28;94892.84;;;-0.09;100.00
8049;BME280;20935;42.660;23.342;2023-01-30T06:01:14;94894.41;;;-0.28;100.00
8049;BME280;20935;42.660;23.342;2023-01-30T06:04:00;94894.41;;;-0.28;100.00
8049;BME280;20935;42.660;23.342;2023-01-30T06:06:48;94899.81;;;0.08;100.00
8049;BME280;20935;42.660;23.342;2023-01-30T06:09:34;94900.94;;;-0.14;100.00
8049;BME280;20935;42.660;23.342;2023-01-30T06:12:19;94904.41;;;-0.01;100.00
8049;BME280;20935;42.660;23.342;2023-01-30T06:15:06;94902.66;;;0.03;100.00
8049;BME280;20935;42.660;23.342;2023-01-30T06:17:51;94900.56;;;-0.24;100.00
8049;BME280;20935;42.660;23.342;2023-01-30T06:20:52;94890.16;;;-0.41;100.00
8049;BME280;20935;42.660;23.342;2023-01-30T06:23:38;94888.66;;;-0.30;100.00
8049;BME280;20935;42.660;23.342;2023-01-30T06:26:25;94880.00;;;-0.31;100.00
8049;BME280;20935;42.660;23.342;2023-01-30T06:29:31;94889.41;;;-0.51;100.00
8049;BME280;20935;42.660;23.342;2023-01-30T06:32:17;94888.31;;;-0.20;100.00
8049;BME280;20935;42.660;23.342;2023-01-30T06:35:03;94899.00;;;-0.46;100.00
8049;BME280;20935;42.660;23.342;2023-01-30T06:37:48;94890.84;;;-0.12;100.00
8049;BME280;20935;42.660;23.342;2023-01-30T06:40:34;94894.00;;;-0.18;100.00
8049;BME280;20935;42.660;23.342;2023-01-30T06:43:20;94885.91;;;-0.13;100.00
8049;BME280;20935;42.660;23.342;2023-01-30T06:46:06;94891.06;;;-0.17;100.00
8049;BME280;20935;42.660;23.342;2023-01-30T06:48:51;94894.03;;;-0.48;100.00
8049;BME280;20935;42.660;23.342;2023-01-30T06:55:27;94894.91;;;-0.14;100.00
8049;BME280;20935;42.660;23.342;2023-01-30T06:58:13;94903.16;;;-0.04;100.00
8049;BME280;20935;42.660;23.342;2023-01-30T07:01:00;94899.06;;;-0.34;100.00
8049;BME280;20935;42.660;23.342;2023-01-30T07:07:09;94891.81;;;-0.37;100.00
8049;BME280;20935;42.660;23.342;2023-01-30T07:09:54;94899.72;;;-0.16;100.00
8049;BME280;20935;42.660;23.342;2023-01-30T07:12:58;94910.19;;;-0.28;100.00
8049;BME280;20935;42.660;23.342;2023-01-30T07:15:44;94906.97;;;-0.34;100.00
8049;BME280;20935;42.660;23.342;2023-01-30T07:18:31;94912.84;;;0.05;100.00
8049;BME280;20935;42.660;23.342;2023-01-30T07:21:17;94916.66;;;-0.05;100.00
8049;BME280;20935;42.660;23.342;2023-01-30T07:24:03;94909.97;;;-0.03;100.00
8049;BME280;20935;42.660;23.342;2023-01-30T07:26:49;94908.16;;;-0.31;100.00
8049;BME280;20935;42.660;23.342;2023-01-30T07:29:35;94908.16;;;-0.31;100.00
8049;BME280;20935;42.660;23.342;2023-01-30T07:32:20;94918.63;;;-0.43;100.00
8049;BME280;20935;42.660;23.342;2023-01-30T07:35:08;94916.31;;;-0.04;100.00
8049;BME280;20935;42.660;23.342;2023-01-30T07:37:53;94930.97;;;0.06;100.00
8049;BME280;20935;42.660;23.342;2023-01-30T07:40:39;94922.72;;;0.28;100.00
8049;BME280;20935;42.660;23.342;2023-01-30T07:43:24;94927.50;;;0.14;100.00
8049;BME280;20935;42.660;23.342;2023-01-30T07:46:22;94928.34;;;0.06;100.00
8049;BME280;20935;42.660;23.342;2023-01-30T07:49:09;94927.19;;;0.16;100.00
8049;BME280;20935;42.660;23.342;2023-01-30T07:51:56;94916.19;;;-0.07;100.00
8049;BME280;20935;42.660;23.342;2023-01-30T07:54:41;94918.84;;;-0.07;100.00
8049;BME280;20935;42.660;23.342;2023-01-30T07:57:26;94916.19;;;-0.07;100.00
8049;BME280;20935;42.660;23.342;2023-01-30T08:00:21;94911.00;;;0.26;100.00
8049;BME280;20935;42.660;23.342;2023-01-30T08:03:10;94906.50;;;0.06;100.00
8049;BME280;20935;42.660;23.342;2023-01-30T08:05:56;94896.50;;;0.20;100.00
8049;BME280;20935;42.660;23.342;2023-01-30T08:08:43;94891.72;;;0.13;100.00
8049;BME280;20935;42.660;23.342;2023-01-30T08:11:29;94890.34;;;0.16;100.00
8049;BME280;20935;42.660;23.342;2023-01-30T08:14:14;94895.31;;;0.09;100.00
8049;BME280;20935;42.660;23.342;2023-01-30T08:16:59;94899.19;;;0.11;100.00
8049;BME280;20935;42.660;23.342;2023-01-30T08:19:45;94896.69;;;0.47;100.00
8049;BME280;20935;42.660;23.342;2023-01-30T08:22:31;94893.91;;;0.44;100.00
8049;BME280;20935;42.660;23.342;2023-01-30T08:25:17;94890.44;;;0.52;100.00
8049;BME280;20935;42.660;23.342;2023-01-30T08:28:03;94883.69;;;0.30;100.00
8049;BME280;20935;42.660;23.342;2023-01-30T08:30:49;94883.28;;;0.40;76.02
8049;BME280;20935;42.660;23.342;2023-01-30T08:34:09;94883.53;;;0.47;100.00
8049;BME280;20935;42.660;23.342;2023-01-30T08:36:54;94884.56;;;0.67;100.00
8049;BME280;20935;42.660;23.342;2023-01-30T08:39:39;94876.91;;;0.86;100.00
8049;BME280;20935;42.660;23.342;2023-01-30T08:42:26;94869.09;;;0.78;100.00
8049;BME280;20935;42.660;23.342;2023-01-30T08:45:12;94869.38;;;0.64;100.00
8049;BME280;20935;42.660;23.342;2023-01-30T08:47:57;94870.09;;;0.85;100.00
8049;BME280;20935;42.660;23.342;2023-01-30T08:50:42;94868.22;;;0.74;100.00
8049;BME280;20935;42.660;23.342;2023-01-30T08:53:28;94861.81;;;0.51;100.00
8049;BME280;20935;42.660;23.342;2023-01-30T08:56:13;94871.94;;;0.73;100.00
8049;BME280;20935;42.660;23.342;2023-01-30T08:59:00;94862.59;;;0.63;100.00
8049;BME280;20935;42.660;23.342;2023-01-30T09:01:45;94861.16;;;0.66;100.00
8049;BME280;20935;42.660;23.342;2023-01-30T09:04:31;94864.16;;;0.88;100.00
8049;BME280;20935;42.660;23.342;2023-01-30T09:07:17;94863.28;;;0.84;99.90
8049;BME280;20935;42.660;23.342;2023-01-30T09:10:02;94843.59;;;0.58;100.00
8049;BME280;20935;42.660;23.342;2023-01-30T09:12:48;94851.53;;;0.82;100.00
8049;BME280;20935;42.660;23.342;2023-01-30T09:15:35;94849.56;;;0.79;100.00
8049;BME280;20935;42.660;23.342;2023-01-30T09:18:20;94859.31;;;0.78;100.00
8049;BME280;20935;42.660;23.342;2023-01-30T09:21:06;94847.25;;;0.89;98.93
8049;BME280;20935;42.660;23.342;2023-01-30T09:23:54;94846.03;;;0.75;100.00
8049;BME280;20935;42.660;23.342;2023-01-30T09:26:40;94850.44;;;1.07;96.77
8049;BME280;20935;42.660;23.342;2023-01-30T09:29:28;94840.88;;;1.03;99.02
8049;BME280;20935;42.660;23.342;2023-01-30T09:32:15;94841.88;;;0.86;100.00
8049;BME280;20935;42.660;23.342;2023-01-30T09:35:00;94847.56;;;1.00;100.00
8049;BME280;20935;42.660;23.342;2023-01-30T09:37:46;94843.72;;;0.98;100.00
8049;BME280;20935;42.660;23.342;2023-01-30T09:40:35;94844.16;;;1.12;100.00
8049;BME280;20935;42.660;23.342;2023-01-30T09:43:42;94842.75;;;0.78;100.00
8049;BME280;20935;42.660;23.342;2023-01-30T09:46:39;94832.63;;;0.92;100.00
8049;BME280;20935;42.660;23.342;2023-01-30T09:49:34;94834.94;;;0.93;100.00
8049;BME280;20935;42.660;23.342;2023-01-30T09:52:30;94822.97;;;0.84;100.00
8049;BME280;20935;42.660;23.342;2023-01-30T09:55:23;94812.28;;;0.56;100.00
8049;BME280;20935;42.660;23.342;2023-01-30T09:58:15;94815.91;;;0.39;100.00
8049;BME280;20935;42.660;23.342;2023-01-30T10:01:05;94813.03;;;0.44;100.00
8049;BME280;20935;42.660;23.342;2023-01-30T10:04:04;94813.06;;;0.57;100.00
8049;BME280;20935;42.660;23.342;2023-01-30T10:06:58;94795.06;;;0.59;100.00
8049;BME280;20935;42.660;23.342;2023-01-30T10:09:56;94799.47;;;0.67;100.00
8049;BME280;20935;42.660;23.342;2023-01-30T10:12:51;94783.88;;;0.62;100.00
8049;BME280;20935;42.660;23.342;2023-01-30T10:15:47;94786.50;;;0.62;100.00
8049;BME280;20935;42.660;23.342;2023-01-30T10:18:46;94787.16;;;1.07;100.00
8049;BME280;20935;42.660;23.342;2023-01-30T10:21:41;94776.06;;;0.65;100.00
8049;BME280;20935;42.660;23.342;2023-01-30T10:24:41;94768.06;;;0.50;100.00
8049;BME280;20935;42.660;23.342;2023-01-30T10:27:32;94766.72;;;0.92;100.00
8049;BME280;20935;42.660;23.342;2023-01-30T10:30:20;94763.34;;;0.31;100.00
8049;BME280;20935;42.660;23.342;2023-01-30T10:33:11;94759.94;;;0.79;100.00
8049;BME280;20935;42.660;23.342;2023-01-30T10:36:03;94754.00;;;0.82;100.00
8049;BME280;20935;42.660;23.342;2023-01-30T10:38:51;94753.03;;;0.62;100.00
8049;BME280;20935;42.660;23.342;2023-01-30T10:41:50;94735.47;;;0.78;100.00
8049;BME280;20935;42.660;23.342;2023-01-30T10:44:37;94742.38;;;0.59;100.00
8049;BME280;20935;42.660;23.342;2023-01-30T10:47:44;94721.53;;;0.66;100.00
8049;BME280;20935;42.660;23.342;2023-01-30T10:50:44;94719.34;;;0.43;100.00
8049;BME280;20935;42.660;23.342;2023-01-30T10:53:37;94724.47;;;0.64;100.00
8049;BME280;20935;42.660;23.342;2023-01-30T10:56:32;94711.09;;;0.69;100.00
8049;BME280;20935;42.660;23.342;2023-01-30T10:59:23;94695.84;;;0.75;100.00
8049;BME280;20935;42.660;23.342;2023-01-30T11:02:20;94695.22;;;1.06;100.00
8049;BME280;20935;42.660;23.342;2023-01-30T11:05:13;94696.31;;;1.60;97.50
8049;BME280;20935;42.660;23.342;2023-01-30T11:07:59;94690.25;;;1.04;97.74
8049;BME280;20935;42.660;23.342;2023-01-30T11:10:45;94678.53;;;1.02;98.33
8049;BME280;20935;42.660;23.342;2023-01-30T11:13:32;94672.09;;;1.27;97.52
8049;BME280;20935;42.660;23.342;2023-01-30T11:16:19;94682.94;;;0.98;99.39
8049;BME280;20935;42.660;23.342;2023-01-30T11:19:04;94669.72;;;1.37;97.56
8049;BME280;20935;42.660;23.342;2023-01-30T11:21:52;94658.63;;;1.75;95.46
8049;BME280;20935;42.660;23.342;2023-01-30T11:24:40;94650.22;;;1.70;93.51
8049;BME280;20935;42.660;23.342;2023-01-30T11:27:27;94651.06;;;1.74;91.99
8049;BME280;20935;42.660;23.342;2023-01-30T11:30:14;94640.44;;;1.86;92.74
8049;BME280;20935;42.660;23.342;2023-01-30T11:33:10;94632.50;;;2.17;88.92
8049;BME280;20935;42.660;23.342;2023-01-30T11:36:01;94637.81;;;2.17;88.75
8049;BME280;20935;42.660;23.342;2023-01-30T11:45:27;94615.66;;;2.06;90.36
8049;BME280;20935;42.660;23.342;2023-01-30T11:48:18;94606.59;;;2.39;87.46
8049;BME280;20935;42.660;23.342;2023-01-30T11:51:05;94602.78;;;2.55;89.11
8049;BME280;20935;42.660;23.342;2023-01-30T11:53:53;94590.25;;;3.06;84.71
8049;BME280;20935;42.660;23.342;2023-01-30T11:56:45;94592.88;;;2.87;86.26
8049;BME280;20935;42.660;23.342;2023-01-30T11:59:34;94576.03;;;2.22;89.12
8049;BME280;20935;42.660;23.342;2023-01-30T12:02:23;94572.66;;;2.60;88.23
8049;BME280;20935;42.660;23.342;2023-01-30T12:05:31;94558.16;;;2.50;88.33
8049;BME280;20935;42.660;23.342;2023-01-30T12:08:23;94562.25;;;2.67;87.46
8049;BME280;20935;42.660;23.342;2023-01-30T12:11:30;94553.69;;;2.73;87.89
8049;BME280;20935;42.660;23.342;2023-01-30T12:14:23;94542.94;;;2.82;85.97
8049;BME280;20935;42.660;23.342;2023-01-30T12:17:15;94541.06;;;2.82;86.91
8049;BME280;20935;42.660;23.342;2023-01-30T12:20:11;94549.59;;;2.57;86.38
8049;BME280;20935;42.660;23.342;2023-01-30T12:23:06;94527.31;;;2.39;87.67
8049;BME280;20935;42.660;23.342;2023-01-30T12:25:57;94538.81;;;2.46;87.40
8049;BME280;20935;42.660;23.342;2023-01-30T12:28:49;94541.09;;;2.13;87.69
8049;BME280;20935;42.660;23.342;2023-01-30T12:31:41;94531.63;;;1.77;90.80
8049;BME280;20935;42.660;23.342;2023-01-30T12:34:59;94521.59;;;2.17;89.49
8049;BME280;20935;42.660;23.342;2023-01-30T12:37:55;94521.75;;;2.63;85.75
8049;BME280;20935;42.660;23.342;2023-01-30T12:40:52;94501.44;;;2.48;87.12
8049;BME280;20935;42.660;23.342;2023-01-30T12:43:54;94510.31;;;2.74;84.46
8049;BME280;20935;42.660;23.342;2023-01-30T12:46:53;94500.78;;;3.12;83.58
8049;BME280;20935;42.660;23.342;2023-01-30T12:50:26;94488.50;;;2.81;83.50
8049;BME280;20935;42.660;23.342;2023-01-30T12:53:35;94505.88;;;3.01;81.81
8049;BME280;20935;42.660;23.342;2023-01-30T12:56:38;94497.06;;;2.74;81.01
8049;BME280;20935;42.660;23.342;2023-01-30T12:59:34;94491.56;;;2.64;82.49
8049;BME280;20935;42.660;23.342;2023-01-30T13:02:33;94494.53;;;2.24;84.17
8049;BME280;20935;42.660;23.342;2023-01-30T13:05:34;94491.91;;;1.89;86.64
8049;BME280;20935;42.660;23.342;2023-01-30T13:08:30;94477.31;;;1.95;87.89
8049;BME280;20935;42.660;23.342;2023-01-30T13:11:33;94482.19;;;1.93;85.72
8049;BME280;20935;42.660;23.342;2023-01-30T13:14:26;94481.34;;;2.24;86.28
8049;BME280;20935;42.660;23.342;2023-01-30T13:17:25;94494.78;;;2.00;86.42
8049;BME280;20935;42.660;23.342;2023-01-30T13:20:24;94477.13;;;2.04;88.15
8049;BME280;20935;42.660;23.342;2023-01-30T13:23:17;94491.91;;;2.24;86.75
8049;BME280;20935;42.660;23.342;2023-01-30T13:26:05;94484.34;;;2.22;86.50
8049;BME280;20935;42.660;23.342;2023-01-30T13:28:56;94483.00;;;1.78;87.32
8049;BME280;20935;42.660;23.342;2023-01-30T13:31:52;94457.59;;;1.89;88.61
8049;BME280;20935;42.660;23.342;2023-01-30T13:34:41;94460.00;;;2.13;87.23
8049;BME280;20935;42.660;23.342;2023-01-30T13:37:28;94463.34;;;2.29;87.18
8049;BME280;20935;42.660;23.342;2023-01-30T13:40:16;94449.78;;;2.12;87.60
8049;BME280;20935;42.660;23.342;2023-01-30T13:43:10;94455.22;;;2.19;87.18
8049;BME280;20935;42.660;23.342;2023-01-30T13:46:03;94444.50;;;2.12;87.59
8049;BME280;20935;42.660;23.342;2023-01-30T13:49:03;94441.19;;;2.15;88.48
8049;BME280;20935;42.660;23.342;2023-01-30T13:52:19;94444.09;;;1.75;89.61
8049;BME280;20935;42.660;23.342;2023-01-30T13:55:18;94445.63;;;2.11;88.24
8049;BME280;20935;42.660;23.342;2023-01-30T13:58:14;94451.19;;;2.25;88.25
8049;BME280;20935;42.660;23.342;2023-01-30T14:01:10;94451.16;;;1.86;88.21
8049;BME280;20935;42.660;23.342;2023-01-30T14:07:26;94443.75;;;1.76;89.21
8049;BME280;20935;42.660;23.342;2023-01-30T14:10:15;94445.31;;;1.97;88.57
8049;BME280;20935;42.660;23.342;2023-01-30T14:13:04;94437.69;;;1.41;91.43
8049;BME280;20935;42.660;23.342;2023-01-30T14:15:53;94454.88;;;1.85;89.42
8049;BME280;20935;42.660;23.342;2023-01-30T14:18:42;94454.00;;;1.62;88.69
8049;BME280;20935;42.660;23.342;2023-01-30T14:21:28;94449.41;;;1.59;89.22
8049;BME280;20935;42.660;23.342;2023-01-30T14:24:21;94449.94;;;1.49;90.10
8049;BME280;20935;42.660;23.342;2023-01-30T14:27:22;94441.03;;;1.22;93.13
8049;BME280;20935;42.660;23.342;2023-01-30T14:30:33;94449.19;;;1.33;92.74
8049;BME280;20935;42.660;23.342;2023-01-30T14:33:33;94449.16;;;1.49;92.01
8049;BME280;20935;42.660;23.342;2023-01-30T14:36:33;94452.66;;;1.37;93.67
8049;BME280;20935;42.660;23.342;2023-01-30T14:39:39;94454.22;;;1.22;93.63
8049;BME280;20935;42.660;23.342;2023-01-30T14:42:26;94442.53;;;1.08;94.88
8049;BME280;20935;42.660;23.342;2023-01-30T14:45:14;94430.63;;;1.14;93.65
8049;BME280;20935;42.660;23.342;2023-01-30T14:48:23;94421.97;;;0.98;94.30
8049;BME280;20935;42.660;23.342;2023-01-30T14:51:16;94418.22;;;0.83;95.78
8049;BME280;20935;42.660;23.342;2023-01-30T14:54:08;94421.34;;;0.88;96.36
8049;BME280;20935;42.660;23.342;2023-01-30T14:57:05;94413.19;;;0.78;95.90
8049;BME280;20935;42.660;23.342;2023-01-30T15:00:04;94420.47;;;0.53;98.70
8049;BME280;20935;42.660;23.342;2023-01-30T15:02:53;94410.31;;;0.83;97.88
8049;BME280;20935;42.660;23.342;2023-01-30T15:05:42;94409.56;;;0.82;98.24
8049;BME280;20935;42.660;23.342;2023-01-30T15:08:28;94420.31;;;0.62;100.00
8049;BME280;20935;42.660;23.342;2023-01-30T15:11:17;94403.13;;;0.52;100.00
8049;BME280;20935;42.660;23.342;2023-01-30T15:14:12;94409.44;;;0.47;100.00
8049;BME280;20935;42.660;23.342;2023-01-30T15:17:09;94414.41;;;0.37;100.00
8049;BME280;20935;42.660;23.342;2023-01-30T15:20:24;94415.25;;;0.13;100.00
8049;BME280;20935;42.660;23.342;2023-01-30T15:23:36;94421.94;;;0.23;100.00
8049;BME280;20935;42.660;23.342;2023-01-30T15:26:37;94422.53;;;0.04;100.00
8049;BME280;20935;42.660;23.342;2023-01-30T15:30:12;94417.19;;;0.28;100.00
8049;BME280;20935;42.660;23.342;2023-01-30T15:33:13;94418.72;;;0.29;100.00
8049;BME280;20935;42.660;23.342;2023-01-30T15:35:59;94420.97;;;0.15;100.00
8049;BME280;20935;42.660;23.342;2023-01-30T15:39:03;94438.53;;;0.11;100.00